Time;durP1;ratioP1;P1;durP2;ratioP2;P2;SDS_P1;SDS_P2;PMS_P1;PMS_P2;Temp;Humidity;BMP_temperature;BMP_pressure;BME280_temperature;BME280_humidity;BME280_pressure;Samples;Min_cycle;Max_cycle;Signal;HPM_P1;HPM_P2
2020/12/24 00:02:21;;;;;;;3.57;0.73;;;11.70;99.90;;;9.95;100.00;99390.47;4883683;28;100020;-65
2020/12/24 00:04:47;;;;;;;2.70;0.80;;;11.70;99.90;;;9.97;100.00;99369.75;4883339;28;100988;-64
2020/12/24 00:07:13;;;;;;;0.93;0.40;;;11.70;99.90;;;9.99;100.00;99370.41;4882248;28;100545;-60
2020/12/24 00:09:40;;;;;;;1.00;0.70;;;11.70;99.90;;;9.96;100.00;99366.25;4883819;28;100072;-63
2020/12/24 00:12:07;;;;;;;0.50;0.47;;;11.70;99.90;;;10.02;100.00;99380.72;4883159;28;100313;-62
2020/12/24 00:14:34;;;;;;;0.50;0.50;;;11.60;99.90;;;10.03;100.00;99363.69;4882310;28;101255;-61
2020/12/24 00:17:00;;;;;;;1.40;0.47;;;11.50;99.90;;;10.04;100.00;99352.81;4883503;28;100426;-63
2020/12/24 00:19:26;;;;;;;0.83;0.60;;;11.40;99.90;;;10.01;100.00;99355.03;4877742;28;100161;-61
2020/12/24 00:21:53;;;;;;;0.90;0.40;;;11.60;99.90;;;10.00;100.00;99358.72;4864575;28;100029;-63
2020/12/24 00:24:19;;;;;;;0.40;0.30;;;11.50;99.90;;;10.00;100.00;99346.19;4865768;28;100012;-63
2020/12/24 00:26:46;;;;;;;0.70;0.60;;;11.60;99.90;;;9.97;100.00;99345.69;4864089;28;101161;-64
2020/12/24 00:29:13;;;;;;;0.50;0.23;;;11.50;99.90;;;9.94;100.00;99346.88;4864064;28;100085;-63
2020/12/24 00:31:40;;;;;;;0.43;0.43;;;11.50;99.90;;;9.96;100.00;99347.53;4928344;28;100274;-62
2020/12/24 00:34:07;;;;;;;1.17;0.50;;;11.60;99.90;;;9.93;100.00;99349.72;4864451;28;101859;-62
2020/12/24 00:36:34;;;;;;;0.50;0.40;;;11.30;99.90;;;9.90;100.00;99350.91;4863827;28;100642;-62
2020/12/24 00:39:01;;;;;;;0.40;0.40;;;11.50;99.90;;;9.86;100.00;99346.94;4864441;28;100335;-62
2020/12/24 00:41:28;;;;;;;1.30;0.57;;;11.50;99.90;;;9.92;100.00;99348.88;4864162;28;100045;-62
2020/12/24 00:43:54;;;;;;;0.83;0.70;;;11.80;99.90;;;9.98;100.00;99356.22;4864407;28;100862;-60
2020/12/24 00:46:22;;;;;;;0.57;0.53;;;11.40;99.90;;;9.99;100.00;99357.06;4863949;28;101184;-64
2020/12/24 00:48:48;;;;;;;0.90;0.40;;;13.00;99.90;;;9.97;100.00;99359.91;4928701;28;100036;-65
2020/12/24 00:51:15;;;;;;;0.33;0.30;;;12.70;99.90;;;10.00;100.00;99361.38;4864561;28;100123;-62
2020/12/24 00:53:42;;;;;;;2.27;0.60;;;11.40;99.90;;;9.93;100.00;99363.91;4863350;28;101548;-64
2020/12/24 00:56:10;;;;;;;1.13;0.50;;;11.60;99.90;;;9.90;100.00;99360.75;4927949;28;102473;-63
2020/12/24 00:58:40;;;;;;;0.80;0.50;;;11.40;99.90;;;9.93;100.00;99365.75;4928428;28;100665;-64
2020/12/24 01:01:07;;;;;;;0.60;0.40;;;11.20;99.90;;;9.94;100.00;99356.72;4961276;28;100394;-64
2020/12/24 01:03:40;;;;;;;0.53;0.40;;;11.50;99.90;;;9.88;100.00;99360.97;4983964;28;101038;-63
2020/12/24 01:06:06;;;;;;;1.80;0.50;;;11.50;99.90;;;9.88;100.00;99352.94;4983972;28;100561;-64
2020/12/24 01:08:33;;;;;;;0.80;0.50;;;11.50;99.90;;;9.90;100.00;99355.41;4984296;28;99983;-64
2020/12/24 01:10:59;;;;;;;0.40;0.40;;;11.40;99.90;;;9.87;100.00;99358.47;4984371;28;100221;-63
2020/12/24 01:13:25;;;;;;;0.53;0.50;;;12.00;99.90;;;9.89;100.00;99367.13;4983336;28;101489;-64
2020/12/24 01:15:52;;;;;;;0.43;0.40;;;12.20;99.90;;;9.91;100.00;99370.44;4983415;28;100378;-63
2020/12/24 01:18:18;;;;;;;1.57;0.53;;;12.30;99.90;;;9.89;100.00;99357.25;4983174;28;100068;-63
2020/12/24 01:20:46;;;;;;;0.80;0.40;;;11.40;99.90;;;9.77;100.00;99353.31;4983935;28;100073;-65
2020/12/24 01:23:13;;;;;;;2.63;0.70;;;11.40;99.90;;;9.76;100.00;99350.84;4983180;28;100925;-62
2020/12/24 01:25:39;;;;;;;0.77;0.67;;;11.80;99.90;;;9.85;100.00;99353.28;4984059;27;100074;-63
2020/12/24 01:28:06;;;;;;;0.70;0.47;;;11.30;99.90;;;9.77;100.00;99368.53;4987648;28;100089;-64
2020/12/24 01:30:32;;;;;;;0.83;0.50;;;11.30;99.90;;;9.79;100.00;99355.81;4987109;28;100414;-65
2020/12/24 01:32:59;;;;;;;1.63;0.47;;;11.10;99.90;;;9.83;100.00;99344.63;4987222;28;101133;-64
2020/12/24 01:35:25;;;;;;;0.50;0.40;;;11.20;99.90;;;9.83;100.00;99347.28;4987179;28;100591;-64
2020/12/24 01:37:52;;;;;;;0.40;0.40;;;12.40;99.90;;;9.78;100.00;99346.97;4986821;28;99966;-64
2020/12/24 01:40:19;;;;;;;0.60;0.50;;;11.20;99.90;;;9.81;100.00;99343.13;4987343;28;100117;-64
2020/12/24 01:42:48;;;;;;;0.60;0.40;;;11.20;99.90;;;9.81;100.00;99341.28;4986323;28;100792;-64
2020/12/24 01:45:14;;;;;;;0.80;0.47;;;11.40;99.90;;;9.78;100.00;99330.94;4986914;28;100194;-63
2020/12/24 01:47:41;;;;;;;0.33;0.30;;;11.30;99.90;;;9.81;100.00;99340.44;4986813;28;99990;-65
2020/12/24 01:50:08;;;;;;;0.67;0.40;;;11.30;99.90;;;9.66;100.00;99330.50;4986578;28;102256;-64
2020/12/24 01:52:37;;;;;;;1.03;0.60;;;11.30;99.90;;;9.63;100.00;99327.38;4987089;28;100694;-63
2020/12/24 01:55:07;;;;;;;3.17;0.50;;;11.10;99.90;;;9.60;100.00;99328.56;4986479;28;101262;-64
2020/12/24 01:57:34;;;;;;;0.63;0.53;;;11.30;99.90;;;9.58;100.00;99319.03;4987136;28;100204;-62
2020/12/24 02:00:04;;;;;;;0.60;0.50;;;11.10;99.90;;;9.61;100.00;99318.72;4949665;28;100537;-64
2020/12/24 02:02:38;;;;;;;1.23;0.40;;;11.10;99.90;;;9.58;100.00;99319.88;4882372;28;100579;-64
2020/12/24 02:05:06;;;;;;;0.60;0.40;;;11.30;99.90;;;9.72;100.00;99320.97;4885188;28;100155;-66
2020/12/24 02:07:32;;;;;;;0.97;0.57;;;11.10;99.90;;;9.64;100.00;99323.69;4884931;28;100409;-65
2020/12/24 02:10:00;;;;;;;1.33;0.60;;;11.20;99.90;;;9.65;100.00;99311.97;4867334;28;100567;-64
2020/12/24 02:12:27;;;;;;;1.43;0.40;;;11.10;99.90;;;9.69;100.00;99319.47;4884926;28;101724;-65
2020/12/24 02:14:54;;;;;;;0.60;0.60;;;11.30;99.90;;;9.70;100.00;99320.31;4885344;28;100839;-63
2020/12/24 02:17:20;;;;;;;0.60;0.57;;;12.00;99.90;;;9.70;100.00;99321.16;4885127;28;100186;-64
2020/12/24 02:19:47;;;;;;;0.97;0.40;;;11.10;99.90;;;9.65;100.00;99317.31;4884717;28;100158;-62
2020/12/24 02:22:15;;;;;;;1.27;0.60;;;11.20;99.90;;;9.59;100.00;99310.03;4885075;28;100828;-64
2020/12/24 02:24:42;;;;;;;1.13;0.50;;;11.10;99.90;;;9.56;100.00;99313.88;4885275;28;100595;-64
2020/12/24 02:27:09;;;;;;;0.70;0.43;;;11.60;99.90;;;9.49;100.00;99304.91;4885518;28;99953;-64
2020/12/24 02:29:35;;;;;;;0.57;0.40;;;11.20;99.90;;;9.51;100.00;99323.44;4884671;28;100063;-64
2020/12/24 02:32:02;;;;;;;1.67;0.47;;;11.10;99.90;;;9.55;100.00;99324.72;4884904;28;101521;-63
2020/12/24 02:34:29;;;;;;;0.60;0.60;;;11.80;99.90;;;9.54;100.00;99315.06;4885401;28;100488;-64
2020/12/24 02:36:55;;;;;;;2.30;0.53;;;11.00;99.90;;;9.57;100.00;99312.88;4884314;28;100030;-64
2020/12/24 02:39:22;;;;;;;0.60;0.33;;;11.00;99.90;;;9.57;100.00;99299.53;4866701;28;100348;-65
2020/12/24 02:41:49;;;;;;;1.33;0.57;;;11.00;99.90;;;9.62;100.00;99302.50;4884411;28;101286;-65
2020/12/24 02:44:15;;;;;;;1.77;0.63;;;11.20;99.90;;;9.64;100.00;99308.47;4884859;28;100118;-64
2020/12/24 02:46:42;;;;;;;0.70;0.50;;;12.10;99.90;;;9.66;100.00;99301.13;4884306;28;100258;-64
2020/12/24 02:49:09;;;;;;;0.40;0.40;;;11.10;99.90;;;9.56;100.00;99300.53;4885359;28;100084;-64
2020/12/24 02:51:35;;;;;;;2.33;0.70;;;11.30;99.90;;;9.60;100.00;99299.19;4884229;28;100889;-62
2020/12/24 02:54:02;;;;;;;0.70;0.67;;;11.20;99.90;;;9.70;100.00;99294.44;4884960;28;100823;-65
2020/12/24 02:56:29;;;;;;;2.03;0.60;;;11.90;99.90;;;9.65;100.00;99294.13;4884090;28;99941;-64
2020/12/24 02:58:55;;;;;;;0.37;0.37;;;11.80;99.90;;;9.82;100.00;99289.50;4884048;28;99863;-66
2020/12/24 03:01:22;;;;;;;0.67;0.50;;;11.10;99.90;;;9.80;100.00;99306.72;4976846;28;100221;-63
2020/12/24 03:03:48;;;;;;;2.53;0.70;;;11.70;99.90;;;9.83;100.00;99301.03;4985253;28;99878;-63
2020/12/24 03:06:15;;;;;;;0.70;0.50;;;11.30;99.90;;;9.75;100.00;99304.59;4985342;28;100198;-62
2020/12/24 03:08:41;;;;;;;2.23;0.53;;;12.20;99.90;;;9.75;100.00;99307.28;4985797;28;100248;-63
2020/12/24 03:11:08;;;;;;;1.03;0.57;;;11.40;99.90;;;9.76;100.00;99289.41;4985670;28;100901;-63
2020/12/24 03:13:35;;;;;;;0.93;0.40;;;11.10;99.90;;;9.83;100.00;99290.34;4985929;28;101175;-66
2020/12/24 03:16:01;;;;;;;1.87;0.60;;;11.30;99.90;;;9.80;100.00;99291.53;4985489;28;100087;-64
2020/12/24 03:18:28;;;;;;;0.83;0.40;;;11.30;99.90;;;9.84;100.00;99284.00;4984799;28;100301;-63
2020/12/24 03:20:54;;;;;;;0.97;0.80;;;11.50;99.90;;;9.83;100.00;99271.66;4984097;28;101584;-63
2020/12/24 03:23:21;;;;;;;5.07;0.60;;;11.20;99.90;;;9.80;100.00;99264.81;4984442;28;101151;-63
2020/12/24 03:25:47;;;;;;;0.67;0.50;;;11.20;99.90;;;9.82;100.00;99270.81;4988867;28;100112;-63
2020/12/24 03:28:13;;;;;;;2.03;0.50;;;11.10;99.90;;;9.77;100.00;99267.03;4991829;28;99887;-64
2020/12/24 03:30:41;;;;;;;1.37;0.70;;;11.30;99.90;;;9.79;100.00;99275.66;4985443;28;101775;-63
2020/12/24 03:33:07;;;;;;;0.60;0.40;;;11.20;99.90;;;9.82;100.00;99276.16;4985590;28;101166;-63
2020/12/24 03:35:36;;;;;;;1.40;0.60;;;11.30;99.90;;;9.77;100.00;99275.84;4985345;28;100113;-63
2020/12/24 03:38:03;;;;;;;2.20;0.40;;;11.20;99.90;;;9.85;100.00;99258.94;4985682;28;100092;-62
2020/12/24 03:40:30;;;;;;;2.60;0.67;;;11.40;99.90;;;9.79;100.00;99246.28;4984785;28;100690;-63
2020/12/24 03:42:56;;;;;;;1.30;0.50;;;12.60;99.90;;;9.85;100.00;99253.59;4984893;28;101521;-65
2020/12/24 03:45:23;;;;;;;0.67;0.40;;;11.20;99.90;;;9.87;100.00;99263.09;4984546;28;100122;-64
2020/12/24 03:47:50;;;;;;;0.57;0.50;;;11.30;99.90;;;9.93;100.00;99261.53;4984276;28;99963;-63
2020/12/24 03:50:16;;;;;;;0.57;0.57;;;11.30;99.90;;;9.90;100.00;99273.41;4983350;28;100669;-64
2020/12/24 03:52:43;;;;;;;0.80;0.50;;;11.40;99.90;;;9.94;100.00;99273.91;4984737;28;101200;-65
2020/12/24 03:55:09;;;;;;;1.60;0.60;;;11.50;99.90;;;9.92;100.00;99263.38;4985222;28;100290;-63
2020/12/24 03:57:35;;;;;;;1.70;0.70;;;11.40;99.90;;;9.90;100.00;99259.22;4985002;28;99966;-62
2020/12/24 04:00:02;;;;;;;1.20;0.70;;;11.40;99.90;;;9.99;100.00;99252.81;4946491;28;100613;-65
2020/12/24 04:02:31;;;;;;;1.37;0.53;;;11.50;99.90;;;9.96;100.00;99266.53;4880983;28;100323;-64
2020/12/24 04:04:59;;;;;;;1.63;0.60;;;11.50;99.90;;;9.96;100.00;99254.00;4883364;28;99978;-61
2020/12/24 04:07:25;;;;;;;1.00;0.60;;;11.50;99.90;;;9.94;100.00;99242.66;4884349;28;100139;-64
2020/12/24 04:09:51;;;;;;;2.33;0.70;;;11.50;99.90;;;9.84;100.00;99252.78;4882720;28;101651;-62
2020/12/24 04:12:18;;;;;;;0.70;0.50;;;11.60;99.90;;;9.94;100.00;99264.03;4883813;28;101183;-63
2020/12/24 04:14:44;;;;;;;1.37;0.53;;;11.50;99.90;;;9.93;100.00;99261.53;4883539;28;100006;-63
2020/12/24 04:17:11;;;;;;;1.60;0.57;;;11.60;99.90;;;10.04;100.00;99263.78;4883612;28;100071;-62
2020/12/24 04:19:37;;;;;;;0.90;0.50;;;11.60;99.90;;;10.01;100.00;99275.66;4883223;28;101449;-64
2020/12/24 04:22:04;;;;;;;1.07;0.57;;;12.30;99.90;;;9.98;100.00;99275.22;4883332;28;101369;-63
2020/12/24 04:24:31;;;;;;;1.50;0.73;;;11.60;99.90;;;10.12;100.00;99271.75;4883252;28;100220;-65
2020/12/24 04:26:57;;;;;;;0.70;0.60;;;11.60;99.90;;;10.17;100.00;99282.72;4884078;28;100200;-65
2020/12/24 04:29:24;;;;;;;0.70;0.60;;;11.60;99.90;;;10.18;100.00;99244.31;4883650;28;100676;-64
2020/12/24 04:31:51;;;;;;;0.70;0.70;;;12.40;99.90;;;10.12;100.00;99249.53;4883518;28;100318;-62
2020/12/24 04:34:17;;;;;;;1.70;0.73;;;12.80;99.90;;;10.07;100.00;99239.38;4882993;28;100333;-65
2020/12/24 04:36:43;;;;;;;2.50;0.67;;;12.50;99.90;;;10.13;100.00;99248.53;4882922;28;100282;-64
2020/12/24 04:39:11;;;;;;;2.13;0.60;;;11.60;99.90;;;10.05;100.00;99233.38;4883091;28;101446;-63
2020/12/24 04:41:37;;;;;;;1.53;0.50;;;12.10;99.90;;;10.02;100.00;99244.44;4884005;28;100596;-62
2020/12/24 04:44:04;;;;;;;1.43;0.50;;;11.50;99.90;;;10.06;100.00;99235.88;4883993;28;100371;-63
2020/12/24 04:46:31;;;;;;;1.93;0.50;;;11.50;99.90;;;10.08;100.00;99230.34;4883169;28;100302;-63
2020/12/24 04:48:58;;;;;;;1.87;0.70;;;12.40;99.90;;;10.10;100.00;99231.00;4883211;28;101247;-64
2020/12/24 04:51:26;;;;;;;0.70;0.70;;;12.80;99.90;;;10.09;100.00;99248.88;4883508;28;101555;-65
2020/12/24 04:53:53;;;;;;;1.77;0.60;;;12.10;99.90;;;10.11;100.00;99234.53;4883085;28;99921;-63
2020/12/24 04:56:21;;;;;;;2.03;0.60;;;11.70;99.90;;;10.12;100.00;99230.84;4883870;28;100128;-64
2020/12/24 04:58:47;;;;;;;1.10;0.70;;;11.50;99.90;;;10.04;100.00;99223.69;4882233;28;100852;-64
2020/12/24 05:01:16;;;;;;;3.37;0.90;;;11.70;99.90;;;10.05;100.00;99225.38;4968593;28;101114;-65
2020/12/24 05:03:43;;;;;;;2.40;0.80;;;11.70;99.90;;;10.04;100.00;99226.38;4983816;28;99947;-63
2020/12/24 05:06:17;;;;;;;0.80;0.70;;;12.00;99.90;;;10.12;100.00;99229.00;4915454;28;100549;-64
2020/12/24 05:08:51;;;;;;;2.07;0.80;;;11.70;99.90;;;10.17;100.00;99220.41;4984241;28;100784;-63
2020/12/24 05:11:25;;;;;;;0.80;0.80;;;11.60;99.90;;;10.17;100.00;99215.06;4932127;28;100309;-65
2020/12/24 05:13:52;;;;;;;1.43;0.70;;;11.70;99.90;;;10.16;100.00;99208.06;4883170;28;100060;-64
2020/12/24 05:16:19;;;;;;;1.20;0.77;;;11.70;99.90;;;10.16;100.00;99224.94;4883363;28;100006;-63
2020/12/24 05:18:45;;;;;;;1.37;0.67;;;11.80;99.90;;;10.17;100.00;99223.09;4882886;28;100563;-65
2020/12/24 05:21:12;;;;;;;1.33;0.80;;;11.70;99.90;;;10.11;100.00;99226.50;4882390;28;101211;-63
2020/12/24 05:23:38;;;;;;;1.13;0.70;;;11.70;99.90;;;10.14;100.00;99228.81;4939779;28;100032;-64
2020/12/24 05:26:21;;;;;;;2.00;0.60;;;11.70;99.90;;;10.10;100.00;99228.34;4983420;28;100074;-66
2020/12/24 05:28:48;;;;;;;1.17;0.70;;;11.90;99.90;;;10.08;100.00;99231.19;4984070;28;100775;-64
2020/12/24 05:31:34;;;;;;;1.67;0.60;;;11.80;99.90;;;10.05;100.00;99246.75;4940232;28;101189;-66
2020/12/24 05:34:00;;;;;;;2.63;0.50;;;11.80;99.90;;;10.07;100.00;99242.06;4972256;28;100266;-65
2020/12/24 05:36:27;;;;;;;0.77;0.50;;;12.60;99.90;;;10.05;100.00;99246.75;4959300;28;100037;-63
2020/12/24 05:38:53;;;;;;;0.60;0.40;;;12.20;99.90;;;10.01;100.00;99248.94;4882315;28;101295;-65
2020/12/24 05:41:31;;;;;;;0.67;0.43;;;11.70;99.90;;;9.95;100.00;99251.50;4882631;28;100616;-65
2020/12/24 05:44:00;;;;;;;0.57;0.37;;;11.80;99.90;;;9.65;100.00;99280.75;4882340;28;100035;-63
2020/12/24 05:46:29;;;;;;;1.47;0.73;;;11.70;99.90;;;9.11;100.00;99266.56;4868730;28;100026;-62
2020/12/24 05:48:56;;;;;;;0.80;0.40;;;11.40;99.90;;;8.85;100.00;99272.16;4863122;28;101259;-57
2020/12/24 05:51:23;;;;;;;1.40;0.57;;;11.00;99.90;;;8.70;100.00;99273.03;4863092;28;100166;-64
2020/12/24 05:53:49;;;;;;;0.43;0.40;;;12.00;99.90;;;8.65;100.00;99262.88;4863869;28;100198;-63
2020/12/24 05:56:23;;;;;;;2.00;0.33;;;10.40;99.90;;;8.69;100.00;99258.84;4863093;28;100021;-61
2020/12/24 05:58:51;;;;;;;1.50;0.67;;;10.20;99.90;;;8.70;100.00;99284.53;4862818;28;101610;-63
2020/12/24 06:01:20;;;;;;;2.57;0.47;;;10.30;99.90;;;8.73;100.00;99283.34;4864329;28;100668;-62
2020/12/24 06:04:04;;;;;;;0.73;0.43;;;10.20;99.90;;;8.70;100.00;99278.34;4864022;28;99902;-63
2020/12/24 06:06:59;;;;;;;1.67;0.70;;;10.10;99.90;;;8.65;100.00;99286.88;4862892;28;100393;-65
2020/12/24 06:09:37;;;;;;;2.00;0.50;;;10.00;99.90;;;8.74;100.00;99279.69;4865311;28;101081;-64
2020/12/24 06:12:18;;;;;;;3.50;0.40;;;10.10;99.90;;;8.61;100.00;99269.56;4863021;28;100361;-64
2020/12/24 06:14:48;;;;;;;3.23;0.40;;;10.00;99.90;;;8.59;100.00;99300.88;4865418;28;100044;-63
2020/12/24 06:17:16;;;;;;;1.53;0.60;;;9.90;99.90;;;8.53;100.00;99296.25;4866216;28;100092;-63
2020/12/24 06:19:43;;;;;;;2.00;0.23;;;10.10;99.90;;;8.47;100.00;99303.06;4865489;28;101603;-62
2020/12/24 06:22:10;;;;;;;2.47;0.50;;;9.90;99.90;;;8.42;100.00;99317.88;4865944;28;100502;-64
2020/12/24 06:24:40;;;;;;;0.80;0.27;;;10.80;99.90;;;8.38;100.00;99303.25;4927783;28;100245;-64
2020/12/24 06:27:14;;;;;;;7.77;0.70;;;9.80;99.90;;;8.28;100.00;99298.88;4884767;28;100178;-62
2020/12/24 06:29:50;;;;;;;5.67;2.27;;;11.00;99.90;;;8.22;100.00;99298.72;4886568;28;101460;-63
2020/12/24 06:32:19;;;;;;;4.07;1.97;;;9.80;99.90;;;8.09;100.00;99301.88;4885347;28;99885;-63
2020/12/24 06:34:46;;;;;;;3.63;1.17;;;10.00;99.90;;;8.04;100.00;99304.19;4886888;28;100152;-63
2020/12/24 06:37:16;;;;;;;1.57;1.00;;;9.90;99.90;;;7.94;100.00;99316.84;4864332;28;100180;-63
2020/12/24 06:39:46;;;;;;;3.77;0.63;;;9.70;99.90;;;7.86;100.00;99317.69;4862246;28;101880;-61
2020/12/24 06:42:41;;;;;;;1.57;0.70;;;9.50;99.90;;;7.78;100.00;99311.53;4863213;28;101415;-62
2020/12/24 06:45:12;;;;;;;3.07;0.60;;;9.40;99.90;;;7.75;100.00;99312.69;4865919;28;100114;-61
2020/12/24 06:47:40;;;;;;;1.60;0.80;;;9.20;99.90;;;7.69;100.00;99305.34;4880554;28;100316;-61
2020/12/24 06:50:38;;;;;;;3.57;0.97;;;10.60;99.90;;;7.62;100.00;99309.66;4882545;28;101771;-61
2020/12/24 06:53:25;;;;;;;2.53;0.90;;;9.40;99.90;;;7.50;100.00;99310.97;4955895;28;100230;-62
2020/12/24 06:56:22;;;;;;;2.83;0.70;;;9.20;99.90;;;7.45;100.00;99308.78;4968849;28;99964;-62
2020/12/24 06:58:53;;;;;;;3.40;0.80;;;9.10;99.90;;;7.42;100.00;99325.06;4956198;28;100590;-62
2020/12/24 07:01:23;;;;;;;3.37;1.07;;;9.00;99.90;;;7.31;100.00;99306.72;4908902;28;100868;-61
2020/12/24 07:03:51;;;;;;;1.47;0.83;;;9.00;99.90;;;7.25;100.00;99303.88;4882452;28;101428;-63
2020/12/24 07:06:52;;;;;;;5.63;0.83;;;8.80;99.90;;;7.22;100.00;99305.03;4909040;28;100200;-63
2020/12/24 07:09:42;;;;;;;2.20;0.63;;;9.00;99.90;;;7.25;100.00;99315.38;4964140;28;100314;-61
2020/12/24 07:12:09;;;;;;;2.67;1.17;;;8.70;99.90;;;7.16;100.00;99325.16;4962944;28;101611;-62
2020/12/24 07:14:38;;;;;;;5.37;2.90;;;8.70;99.90;;;7.12;100.00;99320.28;4962590;28;101508;-64
2020/12/24 07:17:11;;;;;;;3.10;1.63;;;9.80;99.90;;;7.22;100.00;99313.84;4912450;28;100104;-61
2020/12/24 07:19:44;;;;;;;2.23;0.83;;;9.00;99.90;;;7.21;100.00;99308.69;4882173;28;99979;-63
2020/12/24 07:22:14;;;;;;;1.97;0.70;;;8.60;99.90;;;7.25;100.00;99306.56;4881891;28;101851;-65
2020/12/24 07:24:40;;;;;;;1.77;0.70;;;8.50;99.90;;;7.16;100.00;99314.50;4881492;28;101368;-62
2020/12/24 07:27:07;;;;;;;1.53;0.70;;;8.50;99.90;;;7.20;100.00;99318.50;4884646;28;100052;-64
2020/12/24 07:29:35;;;;;;;2.03;0.50;;;8.50;99.90;;;7.14;100.00;99318.31;4952616;28;100212;-64
2020/12/24 07:32:05;;;;;;;3.70;0.70;;;8.50;99.90;;;7.16;100.00;99327.81;4982824;28;101357;-64
2020/12/24 07:34:35;;;;;;;2.00;0.70;;;8.30;99.90;;;7.34;100.00;99325.03;4922430;28;100788;-65
2020/12/24 07:37:02;;;;;;;4.10;0.77;;;8.40;99.90;;;7.18;100.00;99330.28;4880671;28;100099;-65
2020/12/24 07:39:29;;;;;;;3.10;0.70;;;8.50;99.90;;;7.22;100.00;99334.31;4881727;28;100048;-64
2020/12/24 07:41:55;;;;;;;2.63;0.93;;;8.40;99.90;;;7.16;100.00;99327.81;4880521;28;100812;-65
2020/12/24 07:44:22;;;;;;;5.07;1.20;;;8.50;99.90;;;7.04;100.00;99330.91;4875141;28;101117;-62
2020/12/24 07:46:51;;;;;;;2.43;0.93;;;8.40;99.90;;;7.09;100.00;99331.25;4982186;28;100187;-62
2020/12/24 07:49:19;;;;;;;3.53;0.80;;;7.40;99.90;;;7.05;100.00;99321.91;4941525;28;100048;-65
2020/12/24 07:51:54;;;;;;;7.40;0.80;;;8.30;99.90;;;6.91;100.00;99326.03;4881360;28;101522;-65
2020/12/24 07:54:25;;;;;;;2.10;0.93;;;8.30;99.90;;;6.91;100.00;99315.38;4881513;28;101327;-65
2020/12/24 07:56:52;;;;;;;3.40;1.00;;;7.30;99.90;;;6.91;100.00;99323.38;4874849;28;100186;-64
2020/12/24 07:59:20;;;;;;;2.57;0.80;;;8.30;99.90;;;6.79;100.00;99316.66;4862470;28;100330;-63
2020/12/24 08:01:46;;;;;;;2.30;1.17;;;8.20;99.90;;;6.76;100.00;99317.78;4927142;28;101448;-63
2020/12/24 08:04:13;;;;;;;3.83;1.43;;;8.40;99.90;;;6.70;100.00;99321.06;4982273;28;101325;-63
2020/12/24 08:06:39;;;;;;;3.43;1.17;;;8.30;99.90;;;6.65;100.00;99320.72;4982080;28;100139;-63
2020/12/24 08:09:11;;;;;;;1.93;0.93;;;8.10;99.90;;;6.56;100.00;99331.44;4982466;28;100125;-63
2020/12/24 08:11:38;;;;;;;3.23;1.20;;;8.10;99.90;;;6.65;100.00;99325.19;4979283;28;100983;-63
2020/12/24 08:14:05;;;;;;;4.80;1.53;;;7.40;99.90;;;6.69;100.00;99335.34;4881808;28;100958;-64
2020/12/24 08:16:35;;;;;;;2.50;0.90;;;8.30;99.90;;;6.89;100.00;99321.84;4881125;28;100169;-64
2020/12/24 08:19:12;;;;;;;2.50;1.00;;;8.10;99.90;;;6.75;100.00;99326.75;4881616;28;100140;-64
2020/12/24 08:21:51;;;;;;;4.67;0.93;;;8.10;99.90;;;6.85;100.00;99331.97;4881090;28;100545;-64
2020/12/24 08:24:19;;;;;;;5.70;1.50;;;8.20;99.90;;;6.78;100.00;99322.97;4881673;28;100281;-65
2020/12/24 08:26:45;;;;;;;3.07;1.37;;;8.40;99.90;;;6.82;100.00;99317.16;4881550;28;100103;-64
2020/12/24 08:29:13;;;;;;;2.67;0.90;;;8.40;99.90;;;6.91;100.00;99317.22;4881851;28;100012;-65
2020/12/24 08:31:42;;;;;;;2.17;0.90;;;8.30;99.90;;;7.14;100.00;99315.66;4881306;28;101173;-65
2020/12/24 08:34:10;;;;;;;1.97;0.60;;;8.50;99.90;;;7.20;100.00;99320.31;4960180;28;100191;-62
2020/12/24 08:36:47;;;;;;;6.40;1.20;;;9.00;99.90;;;7.38;100.00;99318.41;4884438;28;100116;-66
2020/12/24 08:39:16;;;;;;;4.40;0.77;;;10.10;99.90;;;7.43;100.00;99304.59;4972673;28;100000;-65
2020/12/24 08:41:46;;;;;;;2.90;0.90;;;9.50;99.90;;;7.49;100.00;99304.81;4926635;28;100631;-65
2020/12/24 08:44:18;;;;;;;2.20;0.73;;;9.60;99.90;;;7.58;100.00;99303.81;4935762;28;100640;-63
2020/12/24 08:46:44;;;;;;;2.60;0.80;;;11.20;99.70;;;7.72;100.00;99305.00;4942154;28;101081;-66
2020/12/24 08:49:21;;;;;;;5.50;1.57;;;9.90;99.00;;;7.72;100.00;99304.19;4942877;28;100044;-65
2020/12/24 08:51:47;;;;;;;5.37;1.00;;;10.30;97.80;;;7.78;100.00;99301.72;4877917;28;101391;-64
2020/12/24 08:54:14;;;;;;;1.23;0.80;;;10.40;97.10;;;7.81;100.00;99296.03;4879826;28;100554;-64
2020/12/24 08:56:44;;;;;;;3.93;0.97;;;10.00;96.70;;;7.68;100.00;99294.84;4880820;28;100045;-65
2020/12/24 08:59:13;;;;;;;2.70;0.70;;;10.60;96.10;;;7.56;100.00;99281.00;4880015;28;100379;-64
2020/12/24 09:01:42;;;;;;;3.83;1.03;;;10.50;94.80;;;7.75;100.00;99283.38;4879496;28;101350;-64
2020/12/24 09:04:14;;;;;;;2.00;0.80;;;10.90;96.00;;;7.80;100.00;99288.19;4880558;28;100932;-66
2020/12/24 09:06:40;;;;;;;4.10;0.80;;;10.70;95.40;;;7.79;100.00;99294.56;4879550;28;100311;-65
2020/12/24 09:09:07;;;;;;;3.47;0.73;;;11.90;95.40;;;7.80;100.00;99282.88;4861960;28;100190;-66
2020/12/24 09:11:34;;;;;;;3.63;0.63;;;10.70;94.00;;;7.89;100.00;99280.09;4879329;28;100279;-64
2020/12/24 09:14:04;;;;;;;3.37;1.07;;;10.90;94.30;;;7.99;100.00;99276.41;4863961;28;101112;-64
2020/12/24 09:16:32;;;;;;;3.47;1.07;;;10.80;94.20;;;8.02;100.00;99289.41;4879225;28;100027;-67
2020/12/24 09:19:06;;;;;;;4.10;0.97;;;11.10;94.00;;;7.81;100.00;99288.03;4880702;28;100505;-65
2020/12/24 09:21:34;;;;;;;2.53;0.60;;;11.00;93.20;;;7.66;100.00;99280.88;4879313;28;100167;-64
2020/12/24 09:24:07;;;;;;;2.40;0.73;;;10.90;93.80;;;7.57;100.00;99278.19;4913889;28;101662;-65
2020/12/24 09:26:44;;;;;;;2.43;0.57;;;11.30;95.40;;;7.64;100.00;99283.72;4872265;28;99990;-67
2020/12/24 09:29:11;;;;;;;3.03;0.80;;;10.50;94.60;;;7.73;100.00;99287.22;4871959;28;100535;-65
2020/12/24 09:31:38;;;;;;;2.10;0.77;;;10.40;95.40;;;7.74;100.00;99287.06;4875139;28;101592;-64
2020/12/24 09:34:05;;;;;;;3.33;0.87;;;10.50;95.90;;;7.64;100.00;99282.88;4870338;28;100715;-67
2020/12/24 09:36:32;;;;;;;3.33;1.20;;;10.40;95.60;;;7.55;100.00;99284.66;4868764;28;100081;-66
2020/12/24 09:38:58;;;;;;;1.77;0.83;;;11.40;96.50;;;7.66;100.00;99291.53;4886206;28;100083;-66
2020/12/24 09:41:25;;;;;;;4.77;1.23;;;10.20;95.90;;;7.93;100.00;99275.22;4865330;28;100648;-66
2020/12/24 09:43:51;;;;;;;3.77;1.40;;;10.10;96.60;;;8.09;100.00;99271.75;4867738;28;100298;-66
2020/12/24 09:46:19;;;;;;;5.67;1.07;;;11.50;96.60;;;8.16;100.00;99264.78;4902068;28;100157;-64
2020/12/24 09:48:46;;;;;;;2.40;1.20;;;10.70;95.10;;;8.08;100.00;99267.41;4882321;28;100135;-67
2020/12/24 09:51:13;;;;;;;3.97;1.30;;;10.90;94.20;;;8.25;100.00;99271.75;4882266;28;99988;-66
2020/12/24 09:53:43;;;;;;;5.33;1.37;;;11.20;94.30;;;8.16;100.00;99267.44;4881745;28;101547;-67
2020/12/24 09:56:10;;;;;;;6.57;1.63;;;11.20;93.50;;;8.12;100.00;99260.75;4881682;28;100057;-66
2020/12/24 09:58:36;;;;;;;5.03;1.30;;;11.80;93.80;;;8.16;100.00;99270.09;4882016;28;99929;-67
2020/12/24 10:01:03;;;;;;;2.80;1.10;;;11.30;93.60;;;8.33;100.00;99257.59;4875293;28;100538;-66
2020/12/24 10:03:30;;;;;;;1.23;0.90;;;11.10;93.80;;;8.40;100.00;99259.44;4881884;28;100755;-65
2020/12/24 10:05:57;;;;;;;7.23;1.63;;;11.40;93.10;;;8.37;100.00;99250.94;4882659;28;100268;-66
2020/12/24 10:08:24;;;;;;;4.17;1.43;;;11.60;92.10;;;8.19;100.00;99254.59;4899151;28;100051;-68
2020/12/24 10:10:50;;;;;;;6.27;1.47;;;12.50;91.70;;;8.11;100.00;99253.78;4892055;28;100767;-67
2020/12/24 10:13:17;;;;;;;3.87;1.63;;;11.40;91.50;;;8.06;100.00;99256.09;4881223;28;100225;-68
2020/12/24 10:15:45;;;;;;;4.60;1.40;;;11.40;91.70;;;8.00;100.00;99246.13;4875777;28;100031;-67
2020/12/24 10:18:11;;;;;;;4.93;1.30;;;12.30;93.00;;;8.04;100.00;99248.25;4878897;28;100132;-64
2020/12/24 10:20:38;;;;;;;6.70;1.77;;;10.90;93.00;;;8.04;100.00;99242.09;4882523;28;101717;-65